Time;durP1;ratioP1;P1;durP2;ratioP2;P2;SDS_P1;SDS_P2;PMS_P1;PMS_P2;Temp;Humidity;BMP_temperature;BMP_pressure;BME280_temperature;BME280_humidity;BME280_pressure;Samples;Min_cycle;Max_cycle;Signal;HPM_P1;HPM_P2
2022/12/05 00:00:33;;;;;;;30.20;13.00;;;3.50;72.30;;;;;;5066280;28;46226;-68
2022/12/05 00:03:03;;;;;;;28.10;12.47;;;3.50;72.30;;;;;;5061549;28;46473;-69
2022/12/05 00:05:29;;;;;;;29.63;12.60;;;3.40;71.20;;;;;;5065008;28;46421;-69
2022/12/05 00:07:55;;;;;;;26.10;12.03;;;3.40;72.30;;;;;;5061076;28;46502;-69
2022/12/05 00:10:20;;;;;;;26.70;12.03;;;3.50;72.40;;;;;;5066040;28;46338;-65
2022/12/05 00:12:46;;;;;;;27.47;12.97;;;3.50;72.40;;;;;;5067310;28;46341;-65
2022/12/05 00:15:12;;;;;;;32.30;12.40;;;3.40;71.20;;;;;;5064473;28;47775;-67
2022/12/05 00:17:39;;;;;;;25.87;11.13;;;3.50;72.40;;;;;;5063659;28;46596;-68
2022/12/05 00:20:06;;;;;;;21.70;11.80;;;3.50;72.40;;;;;;5064903;28;46467;-68
2022/12/05 00:22:36;;;;;;;29.08;11.50;;;3.50;72.30;;;;;;5072783;28;46611;-68
2022/12/05 00:25:04;;;;;;;25.55;11.70;;;3.50;71.30;;;;;;5065074;28;48762;-67
2022/12/05 00:27:30;;;;;;;23.02;11.35;;;3.50;72.40;;;;;;5065490;28;45925;-66
2022/12/05 00:29:56;;;;;;;22.53;11.30;;;3.50;72.40;;;;;;5065536;28;46496;-67
2022/12/05 00:32:22;;;;;;;24.97;12.00;;;3.50;72.50;;;;;;5066252;28;46366;-67
2022/12/05 00:34:47;;;;;;;21.70;11.40;;;3.50;71.60;;;;;;5062434;28;48838;-67
2022/12/05 00:37:13;;;;;;;23.10;12.03;;;3.50;72.40;;;;;;5065636;28;46593;-68
2022/12/05 00:39:39;;;;;;;25.77;12.53;;;3.50;72.40;;;;;;5071216;28;46494;-68
2022/12/05 00:42:04;;;;;;;25.50;11.40;;;3.50;72.40;;;;;;5067316;28;46416;-68
2022/12/05 00:44:30;;;;;;;20.90;11.53;;;3.60;72.50;;;;;;5068935;28;47962;-66
2022/12/05 00:46:55;;;;;;;26.10;12.33;;;3.60;72.40;;;;;;5068864;28;46579;-68
2022/12/05 00:49:21;;;;;;;19.13;10.57;;;3.60;72.40;;;;;;5066821;28;46384;-67
2022/12/05 00:51:47;;;;;;;21.80;11.60;;;3.60;72.40;;;;;;5066982;28;46721;-67
2022/12/05 00:54:14;;;;;;;18.97;9.30;;;3.50;71.30;;;;;;5066074;28;47461;-67
2022/12/05 00:56:41;;;;;;;23.58;12.50;;;3.50;72.40;;;;;;5069807;28;46406;-68
2022/12/05 00:59:07;;;;;;;17.75;9.70;;;3.50;72.30;;;;;;5069819;28;46396;-69
2022/12/05 01:01:40;;;;;;;19.40;9.83;;;3.60;72.40;;;;;;5082983;27;46407;-66
2022/12/05 01:04:09;;;;;;;23.85;10.05;;;3.60;71.40;;;;;;5069156;28;47617;-67
2022/12/05 01:06:35;;;;;;;16.30;9.45;;;3.50;72.40;;;;;;5059326;28;46518;-68
2022/12/05 01:09:03;;;;;;;20.42;9.48;;;3.50;72.30;;;;;;5074800;28;46712;-66
2022/12/05 01:11:29;;;;;;;18.63;8.97;;;3.30;72.90;;;;;;5078044;28;46298;-67
2022/12/05 01:13:56;;;;;;;20.00;9.75;;;3.20;72.50;;;;;;5065547;28;48894;-67
2022/12/05 01:16:34;;;;;;;20.48;9.57;;;3.20;73.50;;;;;;5066417;28;46460;-68
2022/12/05 01:19:03;;;;;;;20.63;10.35;;;3.30;73.30;;;;;;5078189;28;46364;-68
2022/12/05 01:21:29;;;;;;;18.52;9.85;;;3.40;73.00;;;;;;5067781;28;46385;-67
2022/12/05 01:23:55;;;;;;;17.00;9.95;;;3.50;71.40;;;;;;5065564;28;47921;-69
2022/12/05 01:26:22;;;;;;;18.48;10.43;;;3.50;72.40;;;;;;5066162;28;46515;-67
2022/12/05 01:28:48;;;;;;;19.15;9.50;;;3.50;72.40;;;;;;5068555;28;46469;-66
2022/12/05 01:31:25;;;;;;;20.33;10.05;;;3.50;72.30;;;;;;5067920;28;46432;-67
2022/12/05 01:33:52;;;;;;;18.58;9.80;;;3.60;72.40;;;;;;5067583;28;47667;-67
2022/12/05 01:36:18;;;;;;;23.08;10.93;;;3.70;72.50;;;;;;5067329;28;46642;-68
2022/12/05 01:38:44;;;;;;;19.15;9.18;;;3.60;72.40;;;;;;5069326;28;46420;-67
2022/12/05 01:41:17;;;;;;;19.17;9.63;;;3.60;72.40;;;;;;5069040;27;46394;-67
2022/12/05 01:44:12;;;;;;;17.98;9.30;;;3.40;72.30;;;;;;5067805;28;48609;-65
2022/12/05 01:46:47;;;;;;;16.63;9.45;;;3.20;73.30;;;;;;5030217;27;46561;-66
2022/12/05 01:49:14;;;;;;;17.98;8.88;;;3.00;73.90;;;;;;5062631;28;46570;-66
2022/12/05 01:51:44;;;;;;;14.87;8.07;;;2.90;74.50;;;;;;5068429;28;46736;-66
2022/12/05 01:54:11;;;;;;;16.20;8.98;;;2.80;75.00;;;;;;5075571;28;47791;-67
2022/12/05 01:56:40;;;;;;;19.40;8.85;;;2.60;75.30;;;;;;5074237;28;46513;-68
2022/12/05 01:59:10;;;;;;;15.40;8.70;;;2.70;75.40;;;;;;5068563;27;46426;-68
2022/12/05 02:01:36;;;;;;;20.98;9.35;;;2.80;75.20;;;;;;5068551;28;46055;-68
2022/12/05 02:04:02;;;;;;;17.38;9.23;;;3.00;73.00;;;;;;5063490;28;47769;-68
2022/12/05 02:06:29;;;;;;;18.25;9.73;;;3.00;74.00;;;;;;5066686;28;46342;-66
2022/12/05 02:08:54;;;;;;;19.98;9.18;;;3.10;73.90;;;;;;5067278;28;46592;-66
2022/12/05 02:11:23;;;;;;;18.30;9.73;;;3.00;73.80;;;;;;5068482;28;46472;-67
2022/12/05 02:14:28;;;;;;;17.95;9.20;;;2.90;74.20;;;;;;5077623;27;49196;-69
2022/12/05 02:17:20;;;;;;;17.33;9.60;;;2.90;74.60;;;;;;5076757;27;45960;-66
2022/12/05 02:19:58;;;;;;;19.65;10.32;;;2.90;74.40;;;;;;5064501;28;46483;-66
2022/12/05 02:22:39;;;;;;;16.23;8.27;;;3.00;74.40;;;;;;5063431;28;46149;-67
2022/12/05 02:25:39;;;;;;;17.05;9.32;;;2.80;73.50;;;;;;5064314;28;46166;-67
2022/12/05 02:28:32;;;;;;;16.92;8.00;;;2.80;74.70;;;;;;5066763;28;46445;-66
2022/12/05 02:31:25;;;;;;;15.30;8.43;;;2.70;74.70;;;;;;5064334;28;46362;-68
2022/12/05 02:34:19;;;;;;;15.90;8.20;;;2.60;74.60;;;;;;5056832;28;46384;-71
2022/12/05 02:36:50;;;;;;;17.10;7.63;;;2.60;75.60;;;;;;5060105;28;47931;-67
2022/12/05 02:39:59;;;;;;;17.58;8.10;;;2.50;75.60;;;;;;5063809;28;46414;-68
2022/12/05 02:42:37;;;;;;;15.70;8.98;;;2.50;75.80;;;;;;5061512;28;46214;-68
2022/12/05 02:45:08;;;;;;;18.52;8.95;;;2.60;74.90;;;;;;5070044;28;46418;-67
2022/12/05 02:47:37;;;;;;;20.80;9.10;;;2.60;75.80;;;;;;5063448;28;47909;-68
2022/12/05 02:50:06;;;;;;;15.93;8.82;;;2.70;75.20;;;;;;5068864;28;46202;-67
2022/12/05 02:52:33;;;;;;;18.20;8.80;;;2.80;74.80;;;;;;5067686;28;45951;-68
2022/12/05 02:54:59;;;;;;;22.05;9.27;;;2.90;74.60;;;;;;5064995;28;46415;-68
2022/12/05 02:57:25;;;;;;;16.97;8.73;;;3.00;74.30;;;;;;5065133;28;49162;-67
2022/12/05 02:59:51;;;;;;;18.23;8.47;;;3.00;74.30;;;;;;5071108;28;46487;-67
2022/12/05 03:02:26;;;;;;;21.00;8.40;;;3.00;74.10;;;;;;5067864;28;46401;-68
2022/12/05 03:04:55;;;;;;;20.90;10.05;;;3.00;74.40;;;;;;5064219;28;46529;-67
2022/12/05 03:07:22;;;;;;;17.60;8.35;;;3.00;74.40;;;;;;5075931;28;48280;-67
2022/12/05 03:09:59;;;;;;;21.67;9.50;;;3.00;74.30;;;;;;5062292;28;46626;-66
2022/12/05 03:12:29;;;;;;;22.05;10.77;;;3.10;74.20;;;;;;5065105;28;46453;-66
2022/12/05 03:15:01;;;;;;;19.48;9.18;;;3.20;74.10;;;;;;5064417;28;46364;-67
2022/12/05 03:17:34;;;;;;;23.30;10.52;;;3.20;74.00;;;;;;5062919;28;48911;-67
2022/12/05 03:20:13;;;;;;;21.75;9.20;;;3.20;73.90;;;;;;5066267;28;46493;-66
2022/12/05 03:22:50;;;;;;;21.08;10.35;;;3.30;73.70;;;;;;5062222;28;46420;-67
2022/12/05 03:25:16;;;;;;;22.35;10.98;;;3.30;72.70;;;;;;5063228;28;46504;-68
2022/12/05 03:27:56;;;;;;;20.23;9.93;;;3.50;73.80;;;;;;5062596;28;47966;-68
2022/12/05 03:30:22;;;;;;;19.85;9.07;;;3.40;73.50;;;;;;5064413;28;46369;-68
2022/12/05 03:32:52;;;;;;;22.42;10.50;;;3.40;73.60;;;;;;5079172;27;46504;-66
2022/12/05 03:35:30;;;;;;;22.30;10.57;;;3.30;72.90;;;;;;5065159;28;46452;-66
2022/12/05 03:38:15;;;;;;;25.55;9.43;;;3.30;74.00;;;;;;5069212;28;46429;-66
2022/12/05 03:40:43;;;;;;;18.80;9.25;;;3.30;74.00;;;;;;5059825;28;46474;-68
2022/12/05 03:43:26;;;;;;;24.33;11.68;;;3.40;74.10;;;;;;5065496;28;45894;-67
2022/12/05 03:45:59;;;;;;;26.33;10.85;;;3.40;73.10;;;;;;5057436;28;46485;-68
2022/12/05 03:48:36;;;;;;;27.52;12.35;;;3.50;73.90;;;;;;5064380;28;46477;-67
2022/12/05 03:51:06;;;;;;;31.98;12.68;;;3.50;73.80;;;;;;5063419;28;46346;-67
2022/12/05 03:53:50;;;;;;;22.73;10.88;;;3.60;73.70;;;;;;5059231;28;46546;-67
2022/12/05 03:56:34;;;;;;;24.35;10.38;;;3.60;72.40;;;;;;5067325;28;46549;-69
2022/12/05 03:59:19;;;;;;;26.27;11.60;;;3.60;73.50;;;;;;5061076;28;47780;-70
2022/12/05 04:01:47;;;;;;;23.98;12.50;;;3.60;73.40;;;;;;5062778;28;46435;-68
2022/12/05 04:04:27;;;;;;;28.75;11.80;;;3.70;73.40;;;;;;5063490;28;46669;-70
2022/12/05 04:06:57;;;;;;;23.83;11.37;;;3.80;73.20;;;;;;5079224;27;45897;-67
2022/12/05 04:09:28;;;;;;;25.85;12.20;;;3.80;72.90;;;;;;5062491;28;46573;-69
2022/12/05 04:12:01;;;;;;;24.33;10.38;;;3.80;73.00;;;;;;5073313;28;46566;-68
2022/12/05 04:14:50;;;;;;;21.67;10.60;;;3.80;72.90;;;;;;5078550;28;46351;-69
2022/12/05 04:17:37;;;;;;;25.13;11.57;;;3.90;72.70;;;;;;5067535;28;46349;-67
2022/12/05 04:22:56;;;;;;;20.05;10.73;;;3.90;72.80;;;;;;5073382;28;46353;-68
2022/12/05 04:25:34;;;;;;;24.33;10.20;;;3.90;71.70;;;;;;5069290;28;46314;-68
2022/12/05 04:28:18;;;;;;;20.17;9.60;;;4.00;72.80;;;;;;5070642;28;46348;-68
2022/12/05 04:31:15;;;;;;;23.95;11.52;;;4.00;72.80;;;;;;5071797;28;46535;-70
2022/12/05 04:33:56;;;;;;;24.00;10.65;;;4.00;72.80;;;;;;5066986;28;46773;-73
2022/12/05 04:36:45;;;;;;;23.90;10.80;;;4.00;71.70;;;;;;5067177;28;46228;-67
2022/12/05 04:39:33;;;;;;;24.73;10.50;;;4.10;72.90;;;;;;5088239;27;46425;-68
2022/12/05 04:42:04;;;;;;;20.67;10.30;;;4.20;73.00;;;;;;5069972;28;47733;-66
2022/12/05 04:44:34;;;;;;;19.45;9.80;;;4.20;73.00;;;;;;5077985;28;45949;-69
2022/12/05 04:47:04;;;;;;;19.40;10.05;;;4.20;73.00;;;;;;5067360;28;46358;-68
2022/12/05 04:49:32;;;;;;;238.87;128.93;;;4.20;73.00;;;;;;5067326;28;46377;-68
2022/12/05 04:52:02;;;;;;;30.00;14.07;;;4.30;73.10;;;;;;5069573;28;48071;-68
2022/12/05 04:54:56;;;;;;;43.03;19.77;;;4.40;73.10;;;;;;5067285;28;46482;-68
2022/12/05 04:57:28;;;;;;;30.00;14.88;;;4.50;73.20;;;;;;5035544;28;46480;-68
2022/12/05 04:59:54;;;;;;;45.53;20.37;;;4.70;73.40;;;;;;5066772;28;46664;-69
2022/12/05 05:02:32;;;;;;;31.40;15.00;;;4.80;73.50;;;;;;5064783;28;47758;-68
2022/12/05 05:05:00;;;;;;;22.13;11.60;;;4.80;73.50;;;;;;5066751;28;46437;-68
2022/12/05 05:07:25;;;;;;;32.70;14.63;;;4.80;73.50;;;;;;5066608;28;46405;-67
2022/12/05 05:09:51;;;;;;;19.90;10.50;;;4.80;73.50;;;;;;5068402;28;46009;-67
2022/12/05 05:12:17;;;;;;;18.17;9.93;;;4.80;73.50;;;;;;5067535;28;48507;-68
2022/12/05 05:14:43;;;;;;;24.27;10.90;;;4.80;73.50;;;;;;5068584;28;46485;-68
2022/12/05 05:17:08;;;;;;;21.40;11.17;;;4.70;73.80;;;;;;5067949;28;46391;-69
2022/12/05 05:19:34;;;;;;;21.90;11.53;;;4.50;73.20;;;;;;5067658;28;46471;-68
2022/12/05 05:22:00;;;;;;;22.23;10.67;;;4.30;74.00;;;;;;5068622;28;48071;-68
2022/12/05 05:24:25;;;;;;;27.67;13.20;;;4.30;73.00;;;;;;5062175;28;46695;-68
2022/12/05 05:26:51;;;;;;;21.40;10.40;;;4.30;74.10;;;;;;5067808;28;46321;-70
2022/12/05 05:29:17;;;;;;;19.70;10.70;;;4.30;73.80;;;;;;5064702;28;46673;-68
2022/12/05 05:31:43;;;;;;;19.33;10.43;;;4.30;73.30;;;;;;5069287;28;47926;-68
2022/12/05 05:34:14;;;;;;;25.75;11.70;;;4.50;72.20;;;;;;5066776;27;46503;-68
2022/12/05 05:36:41;;;;;;;26.30;12.90;;;4.50;73.30;;;;;;5068380;28;45875;-69
2022/12/05 05:39:11;;;;;;;22.90;11.70;;;4.50;73.30;;;;;;5066118;28;47032;-68
2022/12/05 05:41:37;;;;;;;26.57;13.40;;;4.50;73.20;;;;;;5062796;28;46520;-68
2022/12/05 05:44:03;;;;;;;18.20;9.40;;;4.60;72.30;;;;;;5068740;28;46446;-69
2022/12/05 05:46:33;;;;;;;20.02;9.52;;;4.60;73.40;;;;;;5067277;28;46803;-69
2022/12/05 05:48:59;;;;;;;26.90;10.90;;;4.60;73.30;;;;;;5067751;28;46513;-69
2022/12/05 05:51:27;;;;;;;20.40;10.57;;;4.60;73.40;;;;;;5070521;28;48899;-69
2022/12/05 05:53:53;;;;;;;19.73;9.98;;;4.60;73.30;;;;;;5067083;28;46434;-68
2022/12/05 05:56:20;;;;;;;16.83;8.90;;;4.60;73.30;;;;;;5064770;28;46540;-69
2022/12/05 05:58:46;;;;;;;16.27;9.00;;;4.60;74.40;;;;;;5064035;28;46396;-69
2022/12/05 06:01:19;;;;;;;22.23;10.20;;;4.70;72.90;;;;;;5067632;28;47921;-69
2022/12/05 06:03:44;;;;;;;21.90;11.52;;;4.70;72.50;;;;;;5061827;28;46474;-69
2022/12/05 06:06:12;;;;;;;18.50;9.63;;;4.70;71.70;;;;;;5064009;28;46438;-69
2022/12/05 06:08:41;;;;;;;18.90;9.83;;;4.70;72.90;;;;;;5066503;28;46411;-67
2022/12/05 06:11:19;;;;;;;16.97;9.40;;;4.70;73.00;;;;;;5064273;28;49113;-68
2022/12/05 06:13:45;;;;;;;20.15;10.65;;;4.70;73.10;;;;;;5070789;28;46195;-68
2022/12/05 06:16:13;;;;;;;17.90;9.53;;;4.70;72.20;;;;;;5065498;28;45853;-69
2022/12/05 06:18:39;;;;;;;16.40;9.13;;;4.70;73.10;;;;;;5065952;28;46382;-70
2022/12/05 06:21:07;;;;;;;18.00;9.53;;;4.70;73.30;;;;;;5066984;28;49048;-68
2022/12/05 06:23:34;;;;;;;14.50;8.52;;;4.70;73.30;;;;;;5063428;28;46472;-68
2022/12/05 06:26:00;;;;;;;18.50;9.83;;;4.70;72.30;;;;;;5060405;28;45902;-67
2022/12/05 06:28:27;;;;;;;15.80;9.20;;;4.70;73.50;;;;;;5065573;28;46701;-69
2022/12/05 06:30:53;;;;;;;14.48;8.65;;;4.70;73.40;;;;;;5066303;28;47979;-68
2022/12/05 06:33:19;;;;;;;18.43;9.37;;;4.70;73.40;;;;;;5068064;27;46216;-70
2022/12/05 06:35:45;;;;;;;17.92;8.15;;;4.70;72.30;;;;;;5062648;28;46310;-67
2022/12/05 06:38:11;;;;;;;17.30;8.53;;;4.70;73.40;;;;;;5067847;28;45931;-69
2022/12/05 06:40:42;;;;;;;17.43;8.87;;;4.70;73.00;;;;;;5064227;28;48237;-68
2022/12/05 06:43:08;;;;;;;17.23;10.20;;;4.80;72.70;;;;;;5067080;28;46608;-69
2022/12/05 06:45:36;;;;;;;18.55;9.57;;;4.80;72.30;;;;;;5065631;28;46431;-68
2022/12/05 06:48:01;;;;;;;16.17;9.20;;;4.80;72.20;;;;;;5075817;28;46551;-69
2022/12/05 06:50:27;;;;;;;16.93;9.07;;;4.70;72.10;;;;;;5064743;28;48092;-68
2022/12/05 06:52:53;;;;;;;19.13;10.33;;;4.70;72.20;;;;;;5067662;27;46451;-68
2022/12/05 06:55:18;;;;;;;15.93;9.03;;;4.60;71.30;;;;;;5071726;28;46427;-69
2022/12/05 06:57:44;;;;;;;18.27;9.10;;;4.50;72.50;;;;;;5075512;28;45854;-68
2022/12/05 07:02:54;;;;;;;21.13;13.13;;;4.50;73.20;;;;;;5068600;28;46547;-69
2022/12/05 07:05:20;;;;;;;23.13;11.70;;;4.40;72.10;;;;;;5066938;28;46530;-68
2022/12/05 07:07:46;;;;;;;20.40;10.30;;;4.40;73.20;;;;;;5066238;28;46653;-69
2022/12/05 07:10:12;;;;;;;19.80;10.50;;;4.50;73.20;;;;;;5069492;28;47625;-68
2022/12/05 07:12:37;;;;;;;17.17;9.77;;;4.60;73.40;;;;;;5064921;28;46314;-69
2022/12/05 07:15:03;;;;;;;22.40;10.73;;;4.60;73.00;;;;;;5065491;28;46749;-70
2022/12/05 07:17:29;;;;;;;23.17;11.43;;;4.70;72.30;;;;;;5065876;28;46638;-67
2022/12/05 07:19:55;;;;;;;21.33;11.60;;;4.80;72.20;;;;;;5061900;28;46581;-67
2022/12/05 07:22:22;;;;;;;19.00;10.13;;;4.80;72.00;;;;;;5065230;28;46432;-67
2022/12/05 07:24:51;;;;;;;19.08;10.38;;;4.90;71.00;;;;;;5064346;28;46513;-69
2022/12/05 07:27:16;;;;;;;19.60;10.13;;;4.90;72.00;;;;;;5065737;28;46361;-68
2022/12/05 07:29:42;;;;;;;17.63;10.53;;;4.90;72.00;;;;;;5061240;28;47863;-68
2022/12/05 07:32:08;;;;;;;19.97;11.47;;;4.90;71.80;;;;;;5061135;28;46677;-68
2022/12/05 07:34:33;;;;;;;21.83;11.57;;;5.00;71.60;;;;;;5062857;28;46494;-68
2022/12/05 07:37:00;;;;;;;23.00;12.70;;;5.00;71.40;;;;;;5063388;28;46010;-69
2022/12/05 07:39:26;;;;;;;26.70;12.77;;;5.00;71.40;;;;;;5063496;28;48177;-68
2022/12/05 07:41:52;;;;;;;28.58;15.35;;;5.10;71.60;;;;;;5062034;28;46444;-68
2022/12/05 07:44:17;;;;;;;31.97;18.43;;;5.20;70.70;;;;;;5064862;28;45937;-67
2022/12/05 07:46:43;;;;;;;43.03;17.63;;;5.20;71.70;;;;;;5067454;28;46466;-68
2022/12/05 07:49:09;;;;;;;44.73;21.37;;;5.30;71.50;;;;;;5067854;28;48944;-70
2022/12/05 07:51:35;;;;;;;40.87;20.57;;;5.40;71.20;;;;;;5066385;28;46375;-68
2022/12/05 07:54:01;;;;;;;39.27;19.73;;;5.40;70.00;;;;;;5068627;28;46648;-68
2022/12/05 07:56:27;;;;;;;50.55;25.88;;;5.40;71.00;;;;;;5066559;28;46429;-69
2022/12/05 07:58:53;;;;;;;32.87;16.80;;;5.50;70.60;;;;;;5066814;27;46630;-70
2022/12/05 08:01:29;;;;;;;33.33;17.10;;;5.50;71.00;;;;;;5069498;28;46641;-68
2022/12/05 08:03:56;;;;;;;28.70;14.33;;;5.60;70.00;;;;;;5065267;28;46394;-68
2022/12/05 08:06:24;;;;;;;26.00;15.10;;;5.60;71.00;;;;;;5069033;27;46567;-68
2022/12/05 08:08:51;;;;;;;35.67;19.90;;;5.60;70.90;;;;;;5069185;28;46510;-68
2022/12/05 08:11:22;;;;;;;26.42;14.93;;;5.70;70.60;;;;;;5065816;28;46513;-68
2022/12/05 08:13:48;;;;;;;19.73;11.07;;;5.80;70.40;;;;;;5064791;28;46752;-68
2022/12/05 08:16:21;;;;;;;21.55;12.20;;;5.70;69.20;;;;;;5065463;28;46513;-67
2022/12/05 08:18:47;;;;;;;19.60;10.30;;;5.80;70.00;;;;;;5087566;27;48337;-69
2022/12/05 08:21:18;;;;;;;19.60;10.40;;;5.80;70.20;;;;;;5065060;28;46600;-69
2022/12/05 08:23:44;;;;;;;17.33;10.60;;;5.80;69.90;;;;;;5065227;28;46398;-69
2022/12/05 08:26:11;;;;;;;17.07;9.90;;;5.90;68.90;;;;;;5067254;28;46637;-69
2022/12/05 08:28:38;;;;;;;16.58;10.35;;;5.90;70.00;;;;;;5066565;28;48237;-69
2022/12/05 08:31:15;;;;;;;14.60;9.10;;;5.90;69.50;;;;;;5066993;28;46397;-69
2022/12/05 08:33:41;;;;;;;16.50;9.37;;;6.00;69.80;;;;;;5068416;28;46463;-68
2022/12/05 08:36:10;;;;;;;22.90;10.00;;;6.10;68.70;;;;;;5067554;28;46517;-68
2022/12/05 08:38:36;;;;;;;16.80;9.23;;;6.10;69.40;;;;;;5066216;28;46753;-69
2022/12/05 08:41:07;;;;;;;16.80;10.68;;;6.10;69.40;;;;;;5067464;28;46403;-69
2022/12/05 08:43:33;;;;;;;17.60;9.90;;;6.10;68.90;;;;;;5076401;28;46452;-68
2022/12/05 08:45:59;;;;;;;14.70;8.93;;;6.10;68.20;;;;;;5067516;28;46478;-68
2022/12/05 08:48:27;;;;;;;13.23;8.10;;;6.10;69.20;;;;;;5068754;28;47910;-69
2022/12/05 08:50:53;;;;;;;15.20;9.00;;;6.20;69.10;;;;;;5067646;28;46808;-69
2022/12/05 08:53:18;;;;;;;15.60;9.23;;;6.20;68.90;;;;;;5069014;27;46399;-69
2022/12/05 08:55:44;;;;;;;12.83;8.13;;;6.30;68.80;;;;;;5069246;28;46574;-70
2022/12/05 08:58:11;;;;;;;15.40;8.30;;;6.30;68.90;;;;;;5067258;28;48089;-69
2022/12/05 09:00:38;;;;;;;17.80;8.60;;;6.40;69.00;;;;;;5066750;28;46434;-68
2022/12/05 09:03:03;;;;;;;17.10;8.50;;;6.40;69.10;;;;;;5068787;28;46407;-68
2022/12/05 09:05:29;;;;;;;14.90;8.97;;;6.40;69.20;;;;;;5067250;28;45895;-69
2022/12/05 09:07:55;;;;;;;15.50;8.50;;;6.40;69.50;;;;;;5063566;28;46432;-70
2022/12/05 09:10:21;;;;;;;27.83;14.63;;;6.40;69.50;;;;;;5070466;28;45896;-67
2022/12/05 09:12:49;;;;;;;28.53;14.47;;;6.40;69.50;;;;;;5066782;28;45888;-68
2022/12/05 09:15:15;;;;;;;33.20;15.03;;;6.50;68.10;;;;;;5079981;27;46510;-68
2022/12/05 09:17:41;;;;;;;21.20;11.67;;;6.50;69.00;;;;;;5065135;28;48864;-68
2022/12/05 09:20:08;;;;;;;16.37;8.80;;;6.50;69.10;;;;;;5066400;28;46511;-67
2022/12/05 09:22:34;;;;;;;15.17;8.83;;;6.50;69.10;;;;;;5067402;28;46319;-68
2022/12/05 09:25:00;;;;;;;27.63;14.80;;;6.50;68.00;;;;;;5059848;28;46509;-70
2022/12/05 09:27:27;;;;;;;45.13;20.87;;;6.50;69.00;;;;;;5067194;28;47943;-69
2022/12/05 09:29:52;;;;;;;22.93;13.77;;;6.60;69.10;;;;;;5068005;28;46572;-70
2022/12/05 09:32:18;;;;;;;18.53;9.37;;;6.60;69.10;;;;;;5067300;28;46517;-68
2022/12/05 09:34:44;;;;;;;14.47;8.93;;;6.60;68.80;;;;;;5068010;28;46467;-68
2022/12/05 09:37:10;;;;;;;16.77;9.30;;;6.50;68.60;;;;;;5065176;28;48318;-68
2022/12/05 09:39:36;;;;;;;15.33;9.57;;;6.50;68.80;;;;;;5065646;28;46697;-70
2022/12/05 09:42:35;;;;;;;17.43;8.97;;;6.50;68.60;;;;;;5068654;27;46528;-69
2022/12/05 09:45:21;;;;;;;17.80;10.47;;;6.50;68.40;;;;;;5064886;28;46699;-68
2022/12/05 09:47:56;;;;;;;20.30;11.57;;;6.50;68.70;;;;;;5059047;28;47519;-68
2022/12/05 09:51:02;;;;;;;40.57;15.43;;;6.50;68.80;;;;;;5066844;28;46441;-68
2022/12/05 09:53:34;;;;;;;23.40;10.37;;;6.50;68.40;;;;;;5084510;27;46392;-69
2022/12/05 09:56:05;;;;;;;13.60;9.20;;;6.50;67.20;;;;;;5064993;28;46440;-69
2022/12/05 09:58:41;;;;;;;15.57;8.77;;;6.60;68.30;;;;;;5063677;28;48970;-69
2022/12/05 10:01:41;;;;;;;14.07;8.80;;;6.60;68.40;;;;;;5067175;28;46112;-69
2022/12/05 10:04:25;;;;;;;13.70;8.87;;;6.70;67.40;;;;;;5064379;28;46435;-69
2022/12/05 10:07:29;;;;;;;19.40;8.60;;;6.70;68.40;;;;;;5071096;28;46465;-69
2022/12/05 10:10:14;;;;;;;14.40;8.57;;;6.80;68.10;;;;;;5059258;27;46210;-68
2022/12/05 10:13:17;;;;;;;16.20;8.87;;;6.80;68.20;;;;;;5068327;28;46290;-70
2022/12/05 10:15:46;;;;;;;17.77;9.10;;;6.90;66.70;;;;;;5065707;28;46595;-68
2022/12/05 10:18:24;;;;;;;14.30;8.67;;;7.00;67.60;;;;;;5063108;28;46747;-70
2022/12/05 10:20:52;;;;;;;15.50;9.60;;;7.00;67.50;;;;;;5065970;28;46529;-68
2022/12/05 10:23:22;;;;;;;17.60;9.37;;;7.00;67.50;;;;;;5064697;28;46311;-68
2022/12/05 10:25:56;;;;;;;15.30;9.63;;;7.00;66.30;;;;;;5064713;28;46478;-69
2022/12/05 10:28:58;;;;;;;17.33;10.13;;;7.00;67.40;;;;;;5064899;28;46480;-68
2022/12/05 10:31:29;;;;;;;22.97;10.70;;;7.00;67.40;;;;;;5067407;28;46699;-69
2022/12/05 10:34:30;;;;;;;20.83;11.37;;;7.20;66.40;;;;;;5067238;28;46768;-69
2022/12/05 10:37:00;;;;;;;23.87;12.53;;;7.20;68.40;;;;;;5064938;28;46431;-68
2022/12/05 10:39:26;;;;;;;24.60;13.40;;;7.30;67.00;;;;;;5068302;28;46521;-67
2022/12/05 10:41:52;;;;;;;54.03;28.93;;;7.30;67.00;;;;;;5063494;28;48044;-70
2022/12/05 10:44:18;;;;;;;22.00;11.23;;;7.40;66.90;;;;;;5068071;28;46529;-69
2022/12/05 10:46:44;;;;;;;16.00;9.80;;;7.40;66.70;;;;;;5062801;28;46443;-68
2022/12/05 10:49:11;;;;;;;23.20;12.90;;;7.50;66.60;;;;;;5065391;28;46184;-68
2022/12/05 10:51:38;;;;;;;14.10;8.50;;;7.50;66.70;;;;;;5062166;28;48854;-67
2022/12/05 10:54:21;;;;;;;9.67;6.50;;;7.30;66.40;;;;;;5061682;28;46424;-68
2022/12/05 10:56:48;;;;;;;6.97;5.20;;;7.30;67.50;;;;;;5062640;28;46459;-68
2022/12/05 10:59:20;;;;;;;7.87;4.70;;;7.30;67.60;;;;;;5075093;28;46500;-70
2022/12/05 11:01:57;;;;;;;8.20;4.20;;;7.20;67.90;;;;;;5065261;28;48891;-69
2022/12/05 11:04:42;;;;;;;9.07;4.80;;;7.20;68.20;;;;;;5068046;28;46314;-69
2022/12/05 11:07:26;;;;;;;6.40;3.87;;;7.30;68.30;;;;;;5061858;28;46482;-68
2022/12/05 11:09:57;;;;;;;7.23;4.30;;;7.20;68.40;;;;;;5070834;28;46464;-68
2022/12/05 11:12:38;;;;;;;7.60;4.90;;;7.20;68.40;;;;;;5060625;28;48011;-68
2022/12/05 11:15:20;;;;;;;16.97;9.00;;;7.30;68.40;;;;;;5066682;28;46441;-70
2022/12/05 11:17:47;;;;;;;17.63;9.93;;;7.20;68.30;;;;;;5066330;28;46379;-70
2022/12/05 11:20:19;;;;;;;17.10;9.10;;;7.20;68.50;;;;;;5062738;28;46629;-70
2022/12/05 11:22:53;;;;;;;18.47;10.53;;;7.20;68.50;;;;;;5064268;28;48446;-68
2022/12/05 11:25:32;;;;;;;12.40;7.60;;;7.20;67.60;;;;;;5066204;28;46491;-69
2022/12/05 11:28:18;;;;;;;21.03;11.13;;;7.20;68.50;;;;;;5080900;27;46294;-68
2022/12/05 11:30:58;;;;;;;25.47;13.33;;;7.10;68.70;;;;;;5062628;28;46411;-69
2022/12/05 11:33:27;;;;;;;13.80;6.57;;;7.10;68.70;;;;;;5064816;28;48124;-70
2022/12/05 11:36:08;;;;;;;15.20;8.37;;;6.90;67.70;;;;;;5079228;27;46423;-69
2022/12/05 11:38:35;;;;;;;16.07;8.93;;;6.80;68.80;;;;;;5074636;28;46434;-68
2022/12/05 11:41:37;;;;;;;12.03;7.87;;;6.80;69.30;;;;;;5063680;28;46404;-69
2022/12/05 11:44:23;;;;;;;8.80;5.83;;;6.80;68.20;;;;;;5066624;28;46388;-69
2022/12/05 11:47:14;;;;;;;6.40;3.83;;;6.80;68.90;;;;;;5066789;28;46020;-68
2022/12/05 11:50:16;;;;;;;5.17;3.53;;;6.80;68.80;;;;;;5088890;27;46797;-70
2022/12/05 11:53:29;;;;;;;7.57;4.30;;;6.70;68.80;;;;;;5061519;28;46051;-68
2022/12/05 11:56:08;;;;;;;5.63;3.57;;;6.60;67.90;;;;;;5039871;28;48568;-68
2022/12/05 11:59:11;;;;;;;6.50;3.80;;;6.50;69.10;;;;;;5060573;28;46530;-70
2022/12/05 12:01:49;;;;;;;7.67;5.37;;;6.60;69.10;;;;;;5079533;27;46188;-68
2022/12/05 12:04:37;;;;;;;5.77;3.90;;;6.60;69.10;;;;;;5065056;28;46461;-68
2022/12/05 12:07:21;;;;;;;4.47;3.00;;;6.90;69.20;;;;;;5065406;28;46704;-69
2022/12/05 12:10:13;;;;;;;6.53;3.70;;;6.50;68.90;;;;;;5061692;28;46454;-68
2022/12/05 12:12:57;;;;;;;6.30;3.67;;;6.50;68.60;;;;;;5062856;28;46533;-68
2022/12/05 12:15:45;;;;;;;5.10;3.10;;;6.50;68.20;;;;;;5066170;28;46394;-69
2022/12/05 12:18:41;;;;;;;4.23;2.63;;;6.50;68.60;;;;;;5085123;27;47693;-69
2022/12/05 12:21:19;;;;;;;6.03;3.03;;;6.20;68.80;;;;;;5064621;28;46333;-68
2022/12/05 12:24:03;;;;;;;6.90;2.77;;;6.30;68.80;;;;;;5067366;28;46374;-68
2022/12/05 12:26:51;;;;;;;5.33;3.20;;;6.20;67.80;;;;;;5065472;28;46686;-68
2022/12/05 12:29:31;;;;;;;5.10;2.70;;;6.20;68.80;;;;;;5065581;28;46623;-69
2022/12/05 12:32:09;;;;;;;15.40;2.60;;;6.30;68.70;;;;;;5064950;28;46463;-69
2022/12/05 12:34:48;;;;;;;4.60;3.40;;;6.20;68.70;;;;;;5063118;28;46299;-68
2022/12/05 12:37:31;;;;;;;4.90;3.20;;;6.30;68.30;;;;;;5066494;28;46428;-69
2022/12/05 12:40:02;;;;;;;6.03;3.00;;;6.40;68.00;;;;;;5063556;28;46699;-69
2022/12/05 12:42:50;;;;;;;6.17;3.33;;;6.50;68.10;;;;;;5077182;28;46581;-69
2022/12/05 12:45:36;;;;;;;4.47;2.70;;;6.40;67.90;;;;;;5068812;28;46064;-69
2022/12/05 12:48:24;;;;;;;5.37;3.47;;;6.20;68.20;;;;;;5066895;28;46445;-68
2022/12/05 12:50:53;;;;;;;5.70;3.50;;;6.20;68.60;;;;;;5061826;28;47740;-68
2022/12/05 12:53:44;;;;;;;8.30;3.30;;;6.20;68.60;;;;;;5070068;28;46396;-68
2022/12/05 12:56:28;;;;;;;4.63;3.10;;;6.20;67.60;;;;;;5085307;27;46458;-69
2022/12/05 12:59:37;;;;;;;5.17;3.17;;;6.30;68.50;;;;;;5061839;28;46723;-68
2022/12/05 13:02:35;;;;;;;5.50;3.70;;;6.10;68.50;;;;;;5066074;28;46477;-68
2022/12/05 13:05:20;;;;;;;6.00;4.07;;;6.20;68.30;;;;;;5069080;28;46312;-68
2022/12/05 13:08:21;;;;;;;36.63;19.83;;;6.30;68.30;;;;;;5065757;28;46470;-69
2022/12/05 13:10:48;;;;;;;23.67;12.13;;;6.50;68.70;;;;;;5068183;28;46551;-69
2022/12/05 13:13:37;;;;;;;12.67;6.90;;;6.60;69.00;;;;;;5066341;28;48441;-67
2022/12/05 13:16:06;;;;;;;15.97;9.00;;;6.70;67.80;;;;;;5066505;28;46673;-69
2022/12/05 13:18:33;;;;;;;13.93;8.00;;;6.70;68.90;;;;;;5066630;28;46432;-68